Time;durP1;ratioP1;P1;durP2;ratioP2;P2;SDS_P1;SDS_P2;PMS_P1;PMS_P2;Temp;Humidity;BMP_temperature;BMP_pressure;BME280_temperature;BME280_humidity;BME280_pressure;Samples;Min_cycle;Max_cycle;Signal;HPM_P1;HPM_P2
2021/07/01 00:00:41;;;;;;;;;;;;;;;22.21;52.85;101572.00;2189234;39;115359;-56
2021/07/01 00:02:13;;;;;;;;;;;;;;;22.19;53.13;101572.31;2185950;39;114218;-58
2021/07/01 00:03:44;;;;;;;;;;;;;;;22.21;53.01;101574.84;2180037;39;113971;-55
2021/07/01 00:05:17;;;;;;;;;;;;;;;22.19;53.15;101575.13;2196518;39;115135;-55
2021/07/01 00:06:48;;;;;;;;;;;;;;;22.19;53.05;101575.13;2190361;39;115427;-56
2021/07/01 00:08:20;;;;;;;;;;;;;;;22.17;53.07;101572.59;2193391;39;115896;-55
2021/07/01 00:09:52;;;;;;;;;;;;;;;22.20;52.83;101575.97;2196037;39;114896;-55
2021/07/01 00:11:23;;;;;;;;;;;;;;;22.18;52.79;101571.47;2196674;39;117304;-55
2021/07/01 00:12:55;;;;;;;;;;;;;;;22.17;53.06;101569.78;2192098;39;114589;-55
2021/07/01 00:14:27;;;;;;;;;;;;;;;22.16;53.13;101567.31;2184112;39;114512;-55
2021/07/01 00:15:59;;;;;;;;;;;;;;;22.17;53.11;101566.97;2193954;39;115573;-55
2021/07/01 00:17:31;;;;;;;;;;;;;;;22.18;52.84;101567.81;2192161;39;115574;-55
2021/07/01 00:19:04;;;;;;;;;;;;;;;22.18;53.24;101554.59;2185838;39;116513;-55
2021/07/01 00:20:35;;;;;;;;;;;;;;;22.17;52.95;101554.88;2195031;39;114540;-55
2021/07/01 00:22:07;;;;;;;;;;;;;;;22.16;52.99;101561.66;2193576;39;115896;-55
2021/07/01 00:23:39;;;;;;;;;;;;;;;22.16;53.31;101559.69;2194689;39;115730;-55
2021/07/01 00:25:12;;;;;;;;;;;;;;;22.13;53.29;101563.09;2197789;39;114672;-56
2021/07/01 00:26:44;;;;;;;;;;;;;;;22.16;53.74;101564.50;2200268;39;115635;-56
2021/07/01 00:28:16;;;;;;;;;;;;;;;22.16;53.62;101570.13;2193817;39;113885;-56
2021/07/01 00:29:47;;;;;;;;;;;;;;;22.15;53.18;101571.25;2193731;39;113861;-56
2021/07/01 00:31:19;;;;;;;;;;;;;;;22.16;53.53;101564.50;2192043;39;113609;-56
2021/07/01 00:32:51;;;;;;;;;;;;;;;22.17;53.62;101571.75;2194024;39;113845;-58
2021/07/01 00:34:23;;;;;;;;;;;;;;;22.17;53.58;101569.78;2188516;39;115566;-55
2021/07/01 00:35:56;;;;;;;;;;;;;;;22.18;53.69;101579.06;2193135;39;113749;-57
2021/07/01 00:37:29;;;;;;;;;;;;;;;22.17;53.68;101566.13;2187157;39;113741;-55
2021/07/01 00:39:02;;;;;;;;;;;;;;;22.17;53.56;101568.94;2192521;39;113657;-55
2021/07/01 00:40:33;;;;;;;;;;;;;;;22.16;53.52;101568.13;2190827;39;113576;-55
2021/07/01 00:42:05;;;;;;;;;;;;;;;22.16;53.76;101564.50;2192629;39;113766;-56
2021/07/01 00:43:37;;;;;;;;;;;;;;;22.14;53.88;101564.78;2194282;39;113713;-56
2021/07/01 00:45:09;;;;;;;;;;;;;;;22.14;53.96;101570.41;2193833;39;113646;-56
2021/07/01 00:46:40;;;;;;;;;;;;;;;22.14;53.82;101570.41;2186000;39;113885;-55
2021/07/01 00:48:12;;;;;;;;;;;;;;;22.14;54.16;101567.59;2196580;39;113857;-56
2021/07/01 00:49:44;;;;;;;;;;;;;;;22.16;54.30;101570.13;2200514;39;113956;-55
2021/07/01 00:51:17;;;;;;;;;;;;;;;22.15;53.82;101562.81;2187934;39;114835;-56
2021/07/01 00:52:49;;;;;;;;;;;;;;;22.14;54.10;101563.94;2195712;39;115238;-55
2021/07/01 00:54:20;;;;;;;;;;;;;;;22.14;54.23;101563.94;2188983;39;114959;-55
2021/07/01 00:55:52;;;;;;;;;;;;;;;22.13;54.24;101565.91;2192596;39;114487;-55
2021/07/01 00:57:24;;;;;;;;;;;;;;;22.12;54.04;101567.03;2191042;39;114698;-56
2021/07/01 00:58:56;;;;;;;;;;;;;;;22.13;54.60;101567.88;2191373;39;115366;-56
2021/07/01 01:02:03;;;;;;;;;;;;;;;22.15;54.28;101577.72;2198227;39;114790;-55
2021/07/01 01:03:36;;;;;;;;;;;;;;;22.14;54.20;101572.38;2198816;39;114795;-55
2021/07/01 01:05:08;;;;;;;;;;;;;;;22.14;54.22;101578.84;2191904;39;115113;-56
2021/07/01 01:06:39;;;;;;;;;;;;;;;22.12;54.11;101567.03;2197738;39;115157;-56
2021/07/01 01:08:11;;;;;;;;;;;;;;;22.13;54.44;101565.91;2198287;39;114992;-55
2021/07/01 01:09:43;;;;;;;;;;;;;;;22.14;54.11;101572.38;2193850;39;114896;-55
2021/07/01 01:11:15;;;;;;;;;;;;;;;22.12;54.41;101563.44;2196255;39;115503;-57
2021/07/01 01:12:47;;;;;;;;;;;;;;;22.13;54.47;101565.91;2197273;39;115485;-55
2021/07/01 01:14:18;;;;;;;;;;;;;;;22.11;54.48;101568.22;2191534;39;115842;-55
2021/07/01 01:15:53;;;;;;;;;;;;;;;22.10;54.71;101566.53;2190842;39;115580;-56
2021/07/01 01:17:25;;;;;;;;;;;;;;;22.09;54.34;101575.28;2197119;39;115511;-56
2021/07/01 01:18:58;;;;;;;;;;;;;;;22.09;54.28;101575.28;2191449;39;115481;-56
2021/07/01 01:20:30;;;;;;;;;;;;;;;22.10;54.46;101576.94;2192212;39;116644;-55
2021/07/01 01:22:02;;;;;;;;;;;;;;;22.08;54.38;101573.59;2193174;39;115741;-56
2021/07/01 01:23:35;;;;;;;;;;;;;;;22.10;54.53;101563.72;2195685;39;115671;-55
2021/07/01 01:25:07;;;;;;;;;;;;;;;22.09;54.44;101562.03;2197703;39;114577;-56
2021/07/01 01:26:39;;;;;;;;;;;;;;;22.08;54.23;101560.34;2194095;39;116496;-56
2021/07/01 01:28:11;;;;;;;;;;;;;;;22.10;54.40;101566.53;2194074;39;114707;-55
2021/07/01 01:29:44;;;;;;;;;;;;;;;22.10;54.42;101565.69;2193727;39;115756;-56
2021/07/01 01:31:16;;;;;;;;;;;;;;;22.12;54.40;101563.44;2186359;39;114559;-56
2021/07/01 01:32:48;;;;;;;;;;;;;;;22.09;54.38;101559.22;2189100;39;115364;-55
2021/07/01 01:34:21;;;;;;;;;;;;;;;22.10;54.19;101560.91;2189609;39;113699;-56
2021/07/01 01:35:53;;;;;;;;;;;;;;;22.10;54.69;101562.88;2195800;39;114138;-55
2021/07/01 01:37:25;;;;;;;;;;;;;;;22.11;54.55;101561.75;2196235;39;113681;-56
2021/07/01 01:38:57;;;;;;;;;;;;;;;22.08;54.62;101560.34;2189093;39;114222;-58
2021/07/01 01:40:29;;;;;;;;;;;;;;;22.08;54.54;101565.16;2195533;39;113876;-56
2021/07/01 01:42:01;;;;;;;;;;;;;;;22.08;54.44;101568.81;2186617;39;113813;-55
2021/07/01 01:43:34;;;;;;;;;;;;;;;22.08;54.63;101562.31;2196085;39;113952;-56
2021/07/01 01:45:06;;;;;;;;;;;;;;;22.08;54.55;101557.53;2193630;39;113609;-56
2021/07/01 01:46:39;;;;;;;;;;;;;;;22.10;54.64;101554.44;2198307;39;113843;-56
2021/07/01 01:48:11;;;;;;;;;;;;;;;22.10;54.72;101562.88;2191798;39;114053;-56
2021/07/01 01:49:45;;;;;;;;;;;;;;;22.09;54.97;101566.81;2189785;39;113861;-56
2021/07/01 01:51:17;;;;;;;;;;;;;;;22.08;55.00;101562.31;2191155;39;113832;-56
2021/07/01 01:52:49;;;;;;;;;;;;;;;22.09;54.92;101566.81;2196402;39;113965;-57
2021/07/01 01:54:20;;;;;;;;;;;;;;;22.08;54.95;101568.81;2188392;39;113801;-56
2021/07/01 01:55:52;;;;;;;;;;;;;;;22.09;54.75;101572.47;2192678;39;115137;-56
2021/07/01 01:57:27;;;;;;;;;;;;;;;22.07;55.10;101575.59;2195088;39;115111;-56
2021/07/01 01:59:05;;;;;;;;;;;;;;;22.07;55.19;101569.13;2194796;39;114857;-56
2021/07/01 02:00:37;;;;;;;;;;;;;;;22.06;55.21;101575.88;2197299;39;114790;-56
2021/07/01 02:02:09;;;;;;;;;;;;;;;22.07;55.18;101574.75;2192638;39;114398;-56
2021/07/01 02:03:41;;;;;;;;;;;;;;;22.05;55.22;101583.50;2195941;39;114467;-56
2021/07/01 02:05:13;;;;;;;;;;;;;;;22.07;55.57;101578.41;2193730;39;114002;-56
2021/07/01 02:06:45;;;;;;;;;;;;;;;22.05;55.28;101580.69;2188619;39;115706;-57
2021/07/01 02:08:17;;;;;;;;;;;;;;;22.06;55.35;101582.34;2188925;39;115365;-56
2021/07/01 02:09:49;;;;;;;;;;;;;;;22.08;55.42;101584.84;2194414;39;115677;-56
2021/07/01 02:11:20;;;;;;;;;;;;;;;22.06;55.44;101578.69;2187003;39;114824;-56
2021/07/01 02:12:52;;;;;;;;;;;;;;;22.06;55.40;101578.69;2196139;39;114760;-56
2021/07/01 02:14:24;;;;;;;;;;;;;;;22.06;55.25;101582.34;2188644;39;114823;-56
2021/07/01 02:15:56;;;;;;;;;;;;;;;22.07;55.63;101586.00;2193185;39;115076;-56
2021/07/01 02:17:28;;;;;;;;;;;;;;;22.07;55.46;101589.66;2191755;39;115884;-56
2021/07/01 02:18:59;;;;;;;;;;;;;;;22.08;55.65;101596.94;2194946;39;115573;-56
2021/07/01 02:20:31;;;;;;;;;;;;;;;22.09;55.75;101590.19;2190390;39;115924;-56
2021/07/01 02:22:03;;;;;;;;;;;;;;;22.08;55.53;101591.31;2193692;39;116105;-56
2021/07/01 02:23:35;;;;;;;;;;;;;;;22.08;55.68;101584.84;2190131;39;114803;-56
2021/07/01 02:25:07;;;;;;;;;;;;;;;22.09;55.71;101587.38;2187884;39;115508;-56
2021/07/01 02:26:38;;;;;;;;;;;;;;;22.08;55.59;101598.91;2189113;39;115883;-56
2021/07/01 02:28:10;;;;;;;;;;;;;;;22.08;55.49;101584.84;2192777;39;114758;-58
2021/07/01 02:29:42;;;;;;;;;;;;;;;22.06;55.40;101593.63;2188390;39;115985;-56
2021/07/01 02:31:13;;;;;;;;;;;;;;;22.07;55.33;101589.66;2193836;39;115601;-57
2021/07/01 02:32:45;;;;;;;;;;;;;;;22.07;55.36;101595.28;2193498;39;116180;-55
2021/07/01 02:34:39;;;;;;;;;;;;;;;22.06;55.18;101587.16;2192592;39;116567;-55
2021/07/01 02:36:11;;;;;;;;;;;;;;;22.02;55.29;101581.28;2192014;39;115023;-56
2021/07/01 02:37:43;;;;;;;;;;;;;;;22.03;55.23;101580.13;2193846;39;115497;-56
2021/07/01 02:39:14;;;;;;;;;;;;;;;22.03;55.36;101574.50;2189148;39;116113;-56
2021/07/01 02:40:46;;;;;;;;;;;;;;;22.03;55.59;101576.50;2191687;39;113870;-56
2021/07/01 02:42:18;;;;;;;;;;;;;;;22.02;55.42;101588.91;2194029;39;113772;-56
2021/07/01 02:43:49;;;;;;;;;;;;;;;22.02;55.50;101588.91;2196779;39;113993;-56
2021/07/01 02:45:21;;;;;;;;;;;;;;;22.01;55.41;101581.59;2191050;39;113855;-55
2021/07/01 02:46:53;;;;;;;;;;;;;;;22.01;55.22;101585.25;2191315;39;113781;-57
2021/07/01 02:48:25;;;;;;;;;;;;;;;21.98;55.19;101591.47;2194183;39;113810;-56
2021/07/01 02:49:56;;;;;;;;;;;;;;;21.98;55.61;101585.00;2198150;39;113689;-56
2021/07/01 02:51:28;;;;;;;;;;;;;;;21.98;55.64;101585.84;2187168;39;115361;-56
2021/07/01 02:53:00;;;;;;;;;;;;;;;21.98;55.24;101585.84;2189010;39;113702;-56
2021/07/01 02:54:31;;;;;;;;;;;;;;;21.99;55.69;101587.50;2188343;39;113866;-55
2021/07/01 02:56:04;;;;;;;;;;;;;;;22.00;55.70;101588.34;2193107;39;113882;-55
2021/07/01 02:57:36;;;;;;;;;;;;;;;21.99;55.65;101589.47;2193821;39;113573;-55
2021/07/01 02:59:11;;;;;;;;;;;;;;;21.98;55.54;101590.66;2186826;39;113640;-56
2021/07/01 03:00:42;;;;;;;;;;;;;;;22.01;55.83;101590.03;2181490;39;114132;-56
2021/07/01 03:02:14;;;;;;;;;;;;;;;21.98;55.35;101585.84;2189422;39;115150;-55
2021/07/01 03:03:46;;;;;;;;;;;;;;;21.98;55.57;101588.66;2190733;39;113988;-56
2021/07/01 03:05:17;;;;;;;;;;;;;;;21.99;55.68;101587.50;2190967;39;115081;-56
2021/07/01 03:06:49;;;;;;;;;;;;;;;22.00;55.35;101588.34;2194309;39;114988;-55
2021/07/01 03:08:21;;;;;;;;;;;;;;;22.00;55.43;101582.72;2193811;39;114663;-55
2021/07/01 03:09:53;;;;;;;;;;;;;;;22.01;55.22;101587.22;2194234;39;114789;-56
2021/07/01 03:11:25;;;;;;;;;;;;;;;21.99;55.27;101583.84;2184120;39;114897;-56
2021/07/01 03:12:57;;;;;;;;;;;;;;;22.00;55.34;101585.53;2196232;39;114972;-56
2021/07/01 03:14:29;;;;;;;;;;;;;;;22.00;55.50;101585.53;2191890;39;114023;-56
2021/07/01 03:16:00;;;;;;;;;;;;;;;21.99;55.33;101584.69;2190038;39;115783;-56
2021/07/01 03:17:32;;;;;;;;;;;;;;;21.99;55.04;101587.50;2191825;39;114020;-56
2021/07/01 03:19:04;;;;;;;;;;;;;;;22.00;55.07;101582.72;2195828;39;114937;-56
2021/07/01 03:20:36;;;;;;;;;;;;;;;21.99;55.43;101575.41;2197454;39;115402;-56
2021/07/01 03:22:08;;;;;;;;;;;;;;;21.96;55.35;101582.50;2202005;39;115016;-55
2021/07/01 03:23:39;;;;;;;;;;;;;;;21.99;55.71;101569.78;2197440;39;115472;-56
2021/07/01 03:25:11;;;;;;;;;;;;;;;21.98;55.36;101568.13;2191382;39;115495;-56
2021/07/01 03:26:43;;;;;;;;;;;;;;;21.96;55.25;101568.44;2191873;39;116501;-56
2021/07/01 03:28:14;;;;;;;;;;;;;;;21.96;55.41;101570.41;2194128;39;115450;-56
2021/07/01 03:29:46;;;;;;;;;;;;;;;21.96;55.27;101570.41;2194002;39;115999;-56
2021/07/01 03:31:18;;;;;;;;;;;;;;;21.95;55.53;101569.56;2193729;39;115734;-56
2021/07/01 03:32:49;;;;;;;;;;;;;;;21.96;55.70;101559.16;2196003;39;115803;-56
2021/07/01 03:34:21;;;;;;;;;;;;;;;21.95;55.58;101563.09;2188054;39;116731;-56
2021/07/01 03:35:53;;;;;;;;;;;;;;;21.96;55.94;101567.59;2186169;39;115623;-56
2021/07/01 03:37:25;;;;;;;;;;;;;;;21.95;55.57;101574.34;2196675;39;115886;-56
2021/07/01 03:38:57;;;;;;;;;;;;;;;21.94;55.80;101573.50;2196910;39;115594;-56
2021/07/01 03:40:28;;;;;;;;;;;;;;;21.95;55.75;101574.34;2197431;39;115048;-56
2021/07/01 03:42:00;;;;;;;;;;;;;;;21.93;55.88;101560.59;2186353;39;117182;-55
2021/07/01 03:43:34;;;;;;;;;;;;;;;21.94;56.22;101559.44;2196426;39;115381;-56
2021/07/01 03:45:06;;;;;;;;;;;;;;;21.95;55.98;101565.91;2192066;39;113716;-56
2021/07/01 03:46:37;;;;;;;;;;;;;;;21.92;55.88;101572.13;2191354;39;113903;-58
2021/07/01 03:48:09;;;;;;;;;;;;;;;21.94;56.20;101562.25;2196640;39;114361;-56
2021/07/01 03:49:41;;;;;;;;;;;;;;;21.95;55.99;101563.09;2193519;39;113731;-56
2021/07/01 03:51:13;;;;;;;;;;;;;;;21.95;56.19;101565.91;2201162;39;114302;-56
2021/07/01 03:52:44;;;;;;;;;;;;;;;21.93;56.04;101563.41;2191754;39;114081;-56
2021/07/01 03:54:16;;;;;;;;;;;;;;;21.92;55.94;101564.50;2195888;39;113802;-56
2021/07/01 03:55:48;;;;;;;;;;;;;;;21.92;56.09;101560.88;2198217;39;113980;-56
2021/07/01 03:57:19;;;;;;;;;;;;;;;21.92;55.93;101552.41;2198547;39;113819;-55
2021/07/01 03:58:51;;;;;;;;;;;;;;;21.92;55.67;101560.88;2198105;39;113974;-55
2021/07/01 04:00:23;;;;;;;;;;;;;;;21.91;55.92;101568.47;2198144;39;114471;-56
2021/07/01 04:01:54;;;;;;;;;;;;;;;21.90;55.72;101565.94;2197903;39;113890;-56
2021/07/01 04:03:26;;;;;;;;;;;;;;;21.91;55.68;101557.22;2191226;39;113647;-56
2021/07/01 04:04:58;;;;;;;;;;;;;;;21.89;55.54;101565.13;2189073;39;113810;-56
2021/07/01 04:06:30;;;;;;;;;;;;;;;21.89;55.92;101558.66;2182824;39;114332;-55
2021/07/01 04:08:01;;;;;;;;;;;;;;;21.90;55.58;101568.75;2193507;39;114025;-55
2021/07/01 04:09:33;;;;;;;;;;;;;;;21.88;55.51;101560.63;2199026;39;115246;-55
2021/07/01 04:11:07;;;;;;;;;;;;;;;21.87;55.62;101573.03;2195726;39;115358;-56
2021/07/01 04:12:38;;;;;;;;;;;;;;;21.89;55.71;101567.09;2191742;39;114880;-56
2021/07/01 04:14:10;;;;;;;;;;;;;;;21.88;55.46;101566.25;2196618;39;114888;-55
2021/07/01 04:15:42;;;;;;;;;;;;;;;21.88;55.59;101571.06;2185644;39;114477;-56
2021/07/01 04:17:13;;;;;;;;;;;;;;;21.86;55.68;101571.34;2192356;39;115005;-56
2021/07/01 04:18:45;;;;;;;;;;;;;;;21.87;55.62;101560.94;2187921;39;115236;-56
2021/07/01 04:20:17;;;;;;;;;;;;;;;21.86;55.63;101560.09;2192227;39;114908;-56
2021/07/01 04:21:49;;;;;;;;;;;;;;;21.86;55.58;101560.09;2193183;39;114010;-56
2021/07/01 04:23:21;;;;;;;;;;;;;;;21.86;55.50;101568.53;2195291;39;116222;-56
2021/07/01 04:24:53;;;;;;;;;;;;;;;21.87;55.62;101564.59;2197683;39;115019;-56
2021/07/01 04:26:24;;;;;;;;;;;;;;;21.85;55.27;101558.41;2185768;39;115232;-55
2021/07/01 04:27:56;;;;;;;;;;;;;;;21.88;55.63;101555.00;2188011;39;114980;-56
2021/07/01 04:29:28;;;;;;;;;;;;;;;21.87;55.81;101555.31;2191811;39;114644;-56
2021/07/01 04:31:01;;;;;;;;;;;;;;;21.87;55.66;101560.94;2196885;39;115485;-56
2021/07/01 04:32:34;;;;;;;;;;;;;;;21.86;55.62;101560.09;2198631;39;115759;-56
2021/07/01 04:34:07;;;;;;;;;;;;;;;21.85;55.87;101563.22;2193560;39;115636;-56
2021/07/01 04:35:38;;;;;;;;;;;;;;;21.85;55.67;101572.47;2197229;39;115573;-56
2021/07/01 04:37:10;;;;;;;;;;;;;;;21.86;55.56;101571.34;2195678;39;115929;-55
2021/07/01 04:38:43;;;;;;;;;;;;;;;21.85;55.47;101569.66;2195664;39;115529;-56
2021/07/01 04:40:15;;;;;;;;;;;;;;;21.85;55.44;101571.66;2188278;39;114843;-55
2021/07/01 04:41:47;;;;;;;;;;;;;;;21.84;55.67;101570.81;2192578;39;116277;-56
2021/07/01 04:43:18;;;;;;;;;;;;;;;21.84;55.37;101573.63;2195899;39;115481;-56
2021/07/01 04:44:50;;;;;;;;;;;;;;;21.85;55.59;101571.66;2191493;39;116019;-56
2021/07/01 04:46:22;;;;;;;;;;;;;;;21.82;55.47;101572.25;2189548;39;117164;-55
2021/07/01 04:47:53;;;;;;;;;;;;;;;21.84;55.46;101578.41;2194283;39;116020;-56
2021/07/01 04:49:25;;;;;;;;;;;;;;;21.83;55.38;101576.75;2200086;39;115775;-55
2021/07/01 04:50:57;;;;;;;;;;;;;;;21.82;55.42;101575.91;2191773;39;113851;-56
2021/07/01 04:52:29;;;;;;;;;;;;;;;21.81;55.05;101571.41;2189935;39;114002;-56
2021/07/01 04:54:01;;;;;;;;;;;;;;;21.81;55.25;101574.22;2184399;39;113915;-56
2021/07/01 04:55:32;;;;;;;;;;;;;;;21.83;55.34;101573.94;2188709;39;113856;-56
2021/07/01 04:57:04;;;;;;;;;;;;;;;21.83;55.16;101571.13;2196820;39;113844;-56
2021/07/01 04:58:36;;;;;;;;;;;;;;;21.84;54.93;101567.16;2196852;39;113972;-56
2021/07/01 05:00:08;;;;;;;;;;;;;;;21.84;54.86;101575.59;2189264;39;113828;-56
2021/07/01 05:01:40;;;;;;;;;;;;;;;21.83;55.00;101566.31;2198227;39;113663;-56
2021/07/01 05:03:12;;;;;;;;;;;;;;;21.83;55.15;101577.59;2197889;39;113874;-56
2021/07/01 05:04:43;;;;;;;;;;;;;;;21.81;54.96;101577.03;2199491;39;114044;-56
2021/07/01 05:06:15;;;;;;;;;;;;;;;21.80;54.95;101577.34;2197050;39;113656;-55
2021/07/01 05:07:47;;;;;;;;;;;;;;;21.81;54.92;101577.03;2197239;39;113856;-56
2021/07/01 05:09:19;;;;;;;;;;;;;;;21.83;55.26;101573.94;2190952;39;114207;-56
2021/07/01 05:10:50;;;;;;;;;;;;;;;21.84;55.20;101579.25;2197308;39;113600;-56
2021/07/01 05:12:22;;;;;;;;;;;;;;;21.90;55.33;101565.94;2196642;39;114741;-55
2021/07/01 05:13:54;;;;;;;;;;;;;;;21.90;55.00;101582.81;2197853;39;115027;-56
2021/07/01 05:15:25;;;;;;;;;;;;;;;21.93;55.15;101571.84;2199117;39;115099;-55
2021/07/01 05:16:57;;;;;;;;;;;;;;;21.93;55.42;101576.63;2198181;39;115097;-56
2021/07/01 05:18:29;;;;;;;;;;;;;;;21.94;55.20;101575.50;2188127;39;114151;-56
2021/07/01 05:20:00;;;;;;;;;;;;;;;21.96;55.10;101573.22;2193089;39;115488;-55
2021/07/01 05:21:32;;;;;;;;;;;;;;;21.93;55.07;101574.66;2195365;39;114791;-56
2021/07/01 05:23:04;;;;;;;;;;;;;;;21.94;55.43;101579.13;2197591;39;114008;-56
2021/07/01 05:24:35;;;;;;;;;;;;;;;21.96;54.82;101579.69;2197579;39;116174;-56
2021/07/01 05:26:07;;;;;;;;;;;;;;;21.95;54.89;101579.97;2197492;39;114366;-56
2021/07/01 05:27:38;;;;;;;;;;;;;;;21.95;55.22;101575.19;2196830;39;115144;-56
2021/07/01 05:29:10;;;;;;;;;;;;;;;21.94;55.30;101573.50;2190706;39;114842;-55
2021/07/01 05:31:02;;;;;;;;;;;;;;;21.96;54.77;101570.41;2195815;39;117234;-56
2021/07/01 05:32:33;;;;;;;;;;;;;;;21.96;54.71;101576.03;2199728;39;114957;-55
2021/07/01 05:34:05;;;;;;;;;;;;;;;21.95;54.79;101580.81;2197077;39;115657;-56
2021/07/01 05:35:37;;;;;;;;;;;;;;;21.95;55.22;101579.97;2196672;39;115473;-56
2021/07/01 05:37:08;;;;;;;;;;;;;;;21.93;55.04;101583.09;2196848;39;114771;-56
2021/07/01 05:38:40;;;;;;;;;;;;;;;21.93;54.78;101577.47;2196945;39;115517;-56
2021/07/01 05:40:15;;;;;;;;;;;;;;;21.96;54.65;101582.50;2196017;39;115486;-56
2021/07/01 05:41:47;;;;;;;;;;;;;;;21.95;54.81;101579.97;2197213;39;115890;-56
2021/07/01 05:43:18;;;;;;;;;;;;;;;21.93;54.70;101580.28;2191000;39;115585;-56
2021/07/01 05:44:50;;;;;;;;;;;;;;;21.92;54.69;101581.41;2194952;39;116045;-56
2021/07/01 05:46:22;;;;;;;;;;;;;;;21.92;54.92;101581.41;2189540;39;115308;-55
2021/07/01 05:47:54;;;;;;;;;;;;;;;21.92;54.91;101586.19;2187713;39;115551;-55
2021/07/01 05:49:26;;;;;;;;;;;;;;;21.93;55.14;101585.09;2196797;39;115912;-55
2021/07/01 05:51:03;;;;;;;;;;;;;;;21.93;54.68;101579.47;2197789;39;116318;-55
2021/07/01 05:52:36;;;;;;;;;;;;;;;21.93;54.47;101590.72;2197452;39;116027;-55
2021/07/01 05:54:17;;;;;;;;;;;;;;;21.91;54.77;101582.53;2186149;39;116214;-56
2021/07/01 05:55:49;;;;;;;;;;;;;;;21.90;54.78;101588.44;2198690;39;114791;-55
2021/07/01 05:57:22;;;;;;;;;;;;;;;21.94;54.48;101592.38;2197201;39;114049;-55
2021/07/01 05:58:53;;;;;;;;;;;;;;;21.93;54.63;101587.91;2184519;39;113795;-56
2021/07/01 06:00:25;;;;;;;;;;;;;;;21.94;54.67;101590.38;2194823;39;113917;-55
2021/07/01 06:01:57;;;;;;;;;;;;;;;21.97;54.50;101588.97;2203174;39;113568;-56
2021/07/01 06:03:28;;;;;;;;;;;;;;;21.99;54.77;101586.66;2199838;39;113624;-57
2021/07/01 06:05:00;;;;;;;;;;;;;;;22.00;54.94;101588.34;2197815;39;113715;-56
2021/07/01 06:06:34;;;;;;;;;;;;;;;22.01;54.93;101595.66;2196799;39;114108;-56
2021/07/01 06:08:08;;;;;;;;;;;;;;;22.02;55.24;101578.47;2185446;39;114092;-56
2021/07/01 06:09:43;;;;;;;;;;;;;;;22.03;55.19;101597.00;2193916;39;114057;-56
2021/07/01 06:11:15;;;;;;;;;;;;;;;22.04;55.24;101589.41;2197052;39;113758;-55
2021/07/01 06:12:47;;;;;;;;;;;;;;;22.04;55.52;101589.41;2192549;39;114129;-55
2021/07/01 06:14:19;;;;;;;;;;;;;;;22.06;55.25;101593.63;2183849;39;113748;-55
2021/07/01 06:15:52;;;;;;;;;;;;;;;22.06;55.55;101593.63;2188757;39;113950;-56
2021/07/01 06:17:26;;;;;;;;;;;;;;;22.08;55.67;101582.88;2189432;39;113974;-55
2021/07/01 06:19:01;;;;;;;;;;;;;;;22.12;55.52;101585.94;2194829;39;114882;-55
2021/07/01 06:20:32;;;;;;;;;;;;;;;22.14;55.52;101583.63;2189847;39;113729;-56
2021/07/01 06:22:04;;;;;;;;;;;;;;;22.16;55.73;101590.66;2193128;39;114087;-55
2021/07/01 06:23:38;;;;;;;;;;;;;;;22.16;55.87;101579.41;2195178;39;115062;-55
2021/07/01 06:25:10;;;;;;;;;;;;;;;22.21;55.75;101588.91;2188929;39;115058;-56
2021/07/01 06:26:43;;;;;;;;;;;;;;;22.23;55.64;101586.59;2186918;39;113937;-56
2021/07/01 06:28:15;;;;;;;;;;;;;;;22.26;55.70;101591.66;2187962;39;115050;-55
2021/07/01 06:29:47;;;;;;;;;;;;;;;22.27;55.70;101596.94;2188427;39;114780;-55
2021/07/01 06:31:19;;;;;;;;;;;;;;;22.30;55.66;101585.09;2189850;39;113924;-56
2021/07/01 06:32:52;;;;;;;;;;;;;;;22.33;55.51;101592.94;2194997;39;114884;-56
2021/07/01 06:34:23;;;;;;;;;;;;;;;22.35;55.18;101598.25;2189562;39;115132;-55
2021/07/01 06:35:56;;;;;;;;;;;;;;;22.37;54.96;101594.00;2195033;39;115161;-56
2021/07/01 06:37:32;;;;;;;;;;;;;;;22.39;55.16;101600.16;2191355;39;115176;-56
2021/07/01 06:39:05;;;;;;;;;;;;;;;22.41;55.19;101600.69;2184695;39;114944;-56
2021/07/01 06:40:38;;;;;;;;;;;;;;;22.42;54.96;101602.38;2185781;39;114854;-56
2021/07/01 06:42:10;;;;;;;;;;;;;;;22.45;54.65;101600.91;2191315;39;115620;-56
2021/07/01 06:43:44;;;;;;;;;;;;;;;22.46;54.95;101597.78;2190779;39;115999;-55
2021/07/01 06:45:16;;;;;;;;;;;;;;;22.47;54.56;101602.28;2197334;39;115964;-55
2021/07/01 06:46:49;;;;;;;;;;;;;;;22.51;54.21;101597.72;2199378;39;115997;-56
2021/07/01 06:48:21;;;;;;;;;;;;;;;22.54;53.75;101605.53;2198126;39;115691;-56
2021/07/01 06:49:53;;;;;;;;;;;;;;;22.55;53.45;101607.22;2191828;39;115467;-56
2021/07/01 06:51:25;;;;;;;;;;;;;;;22.58;53.22;101611.38;2196536;39;116262;-55
2021/07/01 06:52:58;;;;;;;;;;;;;;;22.61;52.93;101605.16;2191251;39;115761;-56
2021/07/01 06:54:30;;;;;;;;;;;;;;;22.61;52.80;101607.97;2189697;39;116095;-55
2021/07/01 06:56:02;;;;;;;;;;;;;;;22.62;52.65;101615.28;2196299;39;114901;-59
2021/07/01 06:57:35;;;;;;;;;;;;;;;22.62;53.28;101610.47;2185542;39;115508;-56
2021/07/01 06:59:09;;;;;;;;;;;;;;;22.59;53.09;101619.53;2178317;39;115224;-56
2021/07/01 07:00:41;;;;;;;;;;;;;;;22.50;50.81;101620.53;2195939;39;115517;-56
2021/07/01 07:02:13;;;;;;;;;;;;;;;22.44;49.83;101616.94;2199346;39;113574;-56
2021/07/01 07:03:45;;;;;;;;;;;;;;;22.40;49.41;101615.06;2191669;39;113991;-56
2021/07/01 07:05:20;;;;;;;;;;;;;;;22.37;48.95;101618.50;2197913;39;113869;-56
2021/07/01 07:06:51;;;;;;;;;;;;;;;22.35;48.69;101618.78;2185651;39;113949;-57
2021/07/01 07:08:23;;;;;;;;;;;;;;;22.32;48.32;101619.41;2195934;39;113804;-56
2021/07/01 07:09:57;;;;;;;;;;;;;;;22.29;48.03;101613.56;2199987;39;113955;-56
2021/07/01 07:11:29;;;;;;;;;;;;;;;22.26;47.76;101606.53;2202048;39;113685;-56
2021/07/01 07:13:01;;;;;;;;;;;;;;;22.27;47.60;101618.63;2198129;39;113710;-56
2021/07/01 07:14:33;;;;;;;;;;;;;;;22.22;47.60;101611.09;2198831;39;113994;-56
2021/07/01 07:16:06;;;;;;;;;;;;;;;22.17;47.71;101617.63;2184734;39;114973;-56
2021/07/01 07:17:38;;;;;;;;;;;;;;;22.16;47.68;101617.97;2189975;39;114075;-56
2021/07/01 07:19:11;;;;;;;;;;;;;;;22.12;47.23;101617.72;2188589;39;114076;-56
2021/07/01 07:20:44;;;;;;;;;;;;;;;22.13;47.37;101621.38;2200165;39;113713;-56
2021/07/01 07:22:16;;;;;;;;;;;;;;;22.09;46.99;101621.13;2199296;39;114216;-56
2021/07/01 07:23:53;;;;;;;;;;;;;;;22.13;47.74;101618.56;2196522;39;114062;-56
2021/07/01 07:25:26;;;;;;;;;;;;;;;22.22;47.75;101613.91;2196434;39;114271;-56
2021/07/01 07:26:59;;;;;;;;;;;;;;;22.26;47.42;101614.97;2197337;39;115310;-56
2021/07/01 07:28:36;;;;;;;;;;;;;;;22.29;47.51;101611.56;2198648;39;115351;-56
2021/07/01 07:30:08;;;;;;;;;;;;;;;22.31;47.57;101612.09;2198961;39;114893;-56
2021/07/01 07:31:41;;;;;;;;;;;;;;;22.34;47.56;101613.47;2198215;39;113961;-55
2021/07/01 07:33:13;;;;;;;;;;;;;;;22.33;48.43;101614.63;2191841;39;114952;-56
2021/07/01 07:34:45;;;;;;;;;;;;;;;22.33;47.94;101606.16;2201650;39;114843;-56
2021/07/01 07:36:18;;;;;;;;;;;;;;;22.36;47.85;101608.34;2192886;39;115179;-56
2021/07/01 07:37:50;;;;;;;;;;;;;;;22.35;47.61;101604.69;2196386;39;113830;-56
2021/07/01 07:39:23;;;;;;;;;;;;;;;22.36;47.98;101602.72;2199013;39;114864;-56
2021/07/01 07:40:55;;;;;;;;;;;;;;;22.37;47.77;101607.22;2198148;39;114791;-56
2021/07/01 07:42:27;;;;;;;;;;;;;;;22.38;48.08;101614.53;2191325;39;115407;-56
2021/07/01 07:43:59;;;;;;;;;;;;;;;22.35;47.93;101617.97;2196358;39;115147;-56
2021/07/01 07:45:31;;;;;;;;;;;;;;;22.37;48.02;101608.06;2201589;39;114134;-66
2021/07/01 07:47:03;;;;;;;;;;;;;;;22.36;47.81;101612.03;2199261;39;116306;-56
2021/07/01 07:48:34;;;;;;;;;;;;;;;22.36;47.98;101609.19;2190480;39;114594;-56
2021/07/01 07:50:07;;;;;;;;;;;;;;;22.36;47.66;101614.84;2190289;39;114964;-56